createdAt,value
2018-04-22T00:00:40.426Z,20.30
2018-04-22T00:03:07.428Z,20.30
2018-04-22T00:05:34.498Z,20.20
2018-04-22T00:08:02.012Z,20.20
2018-04-22T00:10:28.211Z,20.20
2018-04-22T00:12:54.386Z,20.20
2018-04-22T00:15:22.007Z,19.90
2018-04-22T00:17:49.002Z,19.90
2018-04-22T00:20:16.130Z,19.90
2018-04-22T00:22:42.200Z,19.90
2018-04-22T00:25:08.371Z,19.80
2018-04-22T00:27:34.937Z,19.80
2018-04-22T00:30:01.785Z,19.80
2018-04-22T00:32:28.363Z,19.70
2018-04-22T00:34:54.590Z,19.70
2018-04-22T00:37:20.825Z,19.70
2018-04-22T00:39:47.059Z,19.60
2018-04-22T00:42:14.077Z,19.60
2018-04-22T00:44:40.701Z,19.50
2018-04-22T00:47:06.897Z,19.50
2018-04-22T00:49:33.826Z,19.50
2018-04-22T00:52:00.006Z,19.50
2018-04-22T00:54:26.370Z,19.40
2018-04-22T00:56:52.575Z,19.40
2018-04-22T00:59:18.622Z,19.40
2018-04-22T01:01:45.727Z,19.50
2018-04-22T01:04:12.640Z,19.50
2018-04-22T01:06:39.532Z,19.50
2018-04-22T01:09:05.743Z,19.40
2018-04-22T01:11:31.983Z,19.40
2018-04-22T01:13:58.769Z,19.30
2018-04-22T01:16:25.654Z,19.20
2018-04-22T01:18:52.000Z,19.20
2018-04-22T01:21:18.125Z,19.20
2018-04-22T01:23:44.306Z,19.20
2018-04-22T01:26:10.513Z,19.10
2018-04-22T01:28:36.718Z,19.20
2018-04-22T01:31:02.895Z,19.10
2018-04-22T01:33:29.116Z,19.20
2018-04-22T01:35:56.206Z,19.20
2018-04-22T01:38:23.668Z,19.20
2018-04-22T01:40:50.869Z,19.20
2018-04-22T01:43:17.155Z,19.10
2018-04-22T01:45:43.272Z,19.10
2018-04-22T01:48:09.511Z,19.00
2018-04-22T01:50:35.787Z,19.00
2018-04-22T01:53:02.054Z,19.00
2018-04-22T01:55:28.326Z,19.10
2018-04-22T01:57:54.557Z,19.20
2018-04-22T02:00:21.568Z,19.20
2018-04-22T02:02:48.335Z,19.10
2018-04-22T02:05:14.682Z,19.20
2018-04-22T02:07:40.788Z,19.20
2018-04-22T02:10:06.984Z,19.10
2018-04-22T02:12:33.291Z,19.00
2018-04-22T02:15:02.029Z,19.00
2018-04-22T02:17:28.313Z,19.00
2018-04-22T02:19:55.253Z,19.00
2018-04-22T02:22:21.525Z,19.00
2018-04-22T02:24:48.808Z,19.00
2018-04-22T02:27:15.505Z,18.90
2018-04-22T02:29:43.749Z,18.90
2018-04-22T02:32:10.046Z,18.80
2018-04-22T02:34:36.277Z,18.80
2018-04-22T02:37:04.351Z,18.80
2018-04-22T02:39:30.619Z,18.70
2018-04-22T02:41:56.687Z,18.70
2018-04-22T02:44:22.866Z,18.70
2018-04-22T02:46:48.971Z,18.70
2018-04-22T02:49:15.092Z,18.70
2018-04-22T02:51:41.975Z,18.70
2018-04-22T02:54:09.297Z,18.70
2018-04-22T02:56:35.419Z,18.70
2018-04-22T02:59:02.235Z,18.50
2018-04-22T03:01:29.401Z,18.50
2018-04-22T03:03:56.672Z,18.50
2018-04-22T03:06:22.912Z,18.60
2018-04-22T03:08:50.045Z,18.50
2018-04-22T03:11:16.377Z,18.40
2018-04-22T03:13:43.421Z,18.50
2018-04-22T03:16:09.548Z,18.40
2018-04-22T03:18:35.667Z,18.30
2018-04-22T03:21:03.143Z,18.20
2018-04-22T03:23:29.321Z,18.30
2018-04-22T03:25:55.999Z,18.30
2018-04-22T03:28:22.185Z,18.30
2018-04-22T03:30:48.353Z,18.20
2018-04-22T03:33:15.393Z,18.30
2018-04-22T03:35:41.618Z,18.20
2018-04-22T03:38:08.529Z,18.40
2018-04-22T03:40:34.659Z,18.30
2018-04-22T03:43:01.037Z,18.40
2018-04-22T03:45:27.952Z,18.20
2018-04-22T03:47:54.891Z,18.20
2018-04-22T03:50:21.167Z,18.20
2018-04-22T03:52:48.215Z,18.20
2018-04-22T03:55:14.410Z,18.20
2018-04-22T03:57:40.633Z,18.20
2018-04-22T04:00:06.913Z,18.20
2018-04-22T04:02:33.200Z,18.30
2018-04-22T04:04:59.415Z,18.20
2018-04-22T04:07:25.619Z,18.10
2018-04-22T04:09:52.071Z,18.00
2018-04-22T04:12:18.501Z,18.00
2018-04-22T04:14:45.338Z,17.90
2018-04-22T04:17:11.602Z,17.90
2018-04-22T04:19:49.938Z,18.00
2018-04-22T04:22:29.351Z,18.00
2018-04-22T04:28:16.496Z,18.00
2018-04-22T04:30:42.801Z,18.00
2018-04-22T04:33:09.031Z,18.00
2018-04-22T04:35:36.454Z,17.80
2018-04-22T04:38:02.715Z,17.80
2018-04-22T04:40:28.774Z,17.70
2018-04-22T04:42:55.027Z,17.80
2018-04-22T04:45:21.404Z,17.80
2018-04-22T04:47:47.643Z,17.80
2018-04-22T04:50:14.249Z,17.80
2018-04-22T04:52:40.461Z,17.80
2018-04-22T04:55:08.008Z,17.60
2018-04-22T04:57:34.236Z,17.60
2018-04-22T05:00:00.731Z,17.60
2018-04-22T05:02:26.896Z,17.60
2018-04-22T05:04:53.105Z,17.60
2018-04-22T05:07:19.768Z,17.60
2018-04-22T05:09:45.926Z,17.50
2018-04-22T05:12:12.143Z,17.50
2018-04-22T05:14:39.121Z,17.60
2018-04-22T05:17:06.025Z,17.60
2018-04-22T05:19:32.174Z,17.50
2018-04-22T05:21:59.301Z,17.60
2018-04-22T05:24:25.602Z,17.60
2018-04-22T05:26:51.729Z,17.70
2018-04-22T05:29:17.968Z,17.70
2018-04-22T05:31:45.984Z,17.90
2018-04-22T05:34:12.224Z,17.90
2018-04-22T05:36:39.514Z,18.00
2018-04-22T05:39:06.322Z,18.00
2018-04-22T05:41:32.735Z,17.90
2018-04-22T05:43:58.860Z,18.00
2018-04-22T05:46:25.008Z,18.10
2018-04-22T05:48:51.488Z,18.00
2018-04-22T05:51:17.649Z,18.20
2018-04-22T05:53:44.555Z,18.20
2018-04-22T05:56:17.847Z,18.20
2018-04-22T05:58:45.559Z,18.20
2018-04-22T06:01:16.565Z,18.20
2018-04-22T06:03:42.982Z,18.20
2018-04-22T06:06:09.063Z,18.30
2018-04-22T06:08:35.235Z,18.50
2018-04-22T06:11:02.046Z,18.40
2018-04-22T06:13:29.129Z,18.30
2018-04-22T06:15:55.309Z,18.50
2018-04-22T06:18:29.219Z,18.60
2018-04-22T06:20:55.342Z,18.60
2018-04-22T06:23:21.460Z,18.60
2018-04-22T06:25:48.580Z,18.70
2018-04-22T06:28:14.746Z,18.70
2018-04-22T06:30:40.924Z,18.70
2018-04-22T06:33:07.012Z,18.80
2018-04-22T06:35:33.164Z,18.80
2018-04-22T06:38:00.316Z,18.90
2018-04-22T06:40:26.423Z,18.80
2018-04-22T06:42:52.500Z,19.00
2018-04-22T06:45:18.749Z,19.00
2018-04-22T06:47:46.907Z,18.90
2018-04-22T06:50:14.097Z,18.90
2018-04-22T06:52:40.281Z,18.90
2018-04-22T06:55:09.246Z,18.90
2018-04-22T06:57:35.774Z,18.90
2018-04-22T07:00:02.041Z,19.00
2018-04-22T07:02:29.823Z,19.30
2018-04-22T07:04:57.363Z,19.40
2018-04-22T07:07:23.553Z,19.60
2018-04-22T07:09:52.355Z,19.70
2018-04-22T07:12:19.080Z,19.80
2018-04-22T07:14:45.426Z,19.80
2018-04-22T07:17:11.665Z,19.90
2018-04-22T07:19:38.016Z,19.80
2018-04-22T07:22:05.320Z,19.80
2018-04-22T07:24:32.273Z,19.90
2018-04-22T07:26:59.133Z,19.90
2018-04-22T07:29:25.435Z,19.90
2018-04-22T07:31:52.456Z,19.80
2018-04-22T07:34:19.414Z,19.80
2018-04-22T07:36:45.685Z,19.80
2018-04-22T07:39:14.466Z,19.90
2018-04-22T07:41:40.779Z,19.80
2018-04-22T07:44:07.148Z,20.10
2018-04-22T07:46:33.305Z,20.20
2018-04-22T07:49:02.154Z,20.40
2018-04-22T07:51:29.542Z,20.50
2018-04-22T07:53:55.771Z,20.70
2018-04-22T07:56:22.196Z,20.70
2018-04-22T07:58:49.109Z,20.80
2018-04-22T08:01:16.365Z,20.80
2018-04-22T08:03:44.007Z,20.80
2018-04-22T08:06:10.620Z,20.90
2018-04-22T08:08:37.399Z,20.90
2018-04-22T08:11:04.129Z,20.70
2018-04-22T08:13:30.992Z,21.00
2018-04-22T08:15:57.301Z,20.90
2018-04-22T08:18:23.703Z,21.00
2018-04-22T08:20:51.722Z,21.10
2018-04-22T08:23:18.642Z,21.30
2018-04-22T08:25:46.856Z,21.20
2018-04-22T08:28:14.085Z,21.40
2018-04-22T08:30:40.377Z,21.30
2018-04-22T08:33:06.743Z,21.50
2018-04-22T08:35:32.990Z,21.60
2018-04-22T08:37:59.389Z,21.70
2018-04-22T08:40:26.543Z,21.80
2018-04-22T08:42:54.040Z,21.90
2018-04-22T08:45:21.456Z,21.90
2018-04-22T08:47:47.785Z,22.00
2018-04-22T08:50:14.852Z,22.30
2018-04-22T08:52:41.064Z,22.20
2018-04-22T08:55:07.453Z,22.20
2018-04-22T08:57:33.620Z,22.40
2018-04-22T08:59:59.745Z,22.60
2018-04-22T09:02:25.942Z,22.60
2018-04-22T09:04:52.712Z,22.40
2018-04-22T09:07:20.245Z,22.40
2018-04-22T09:09:46.696Z,22.40
2018-04-22T09:12:12.887Z,22.50
2018-04-22T09:14:40.766Z,22.70
2018-04-22T09:17:07.721Z,22.80
2018-04-22T09:19:34.061Z,22.90
2018-04-22T09:22:01.246Z,23.00
2018-04-22T09:24:28.364Z,23.20
2018-04-22T09:26:55.234Z,23.30
2018-04-22T09:29:21.388Z,23.10
2018-04-22T09:31:47.757Z,23.20
2018-04-22T09:34:14.610Z,23.40
2018-04-22T09:36:42.313Z,23.30
2018-04-22T09:39:08.725Z,23.50
2018-04-22T09:41:34.879Z,23.60
2018-04-22T09:44:02.322Z,23.80
2018-04-22T09:46:29.549Z,24.00
2018-04-22T09:48:56.889Z,24.00
2018-04-22T09:51:23.075Z,24.20
2018-04-22T09:53:49.292Z,24.20
2018-04-22T09:56:15.473Z,24.20
2018-04-22T09:58:41.777Z,24.30
2018-04-22T10:01:08.901Z,24.40
2018-04-22T10:03:36.977Z,24.50
2018-04-22T10:06:03.259Z,24.40
2018-04-22T10:08:30.512Z,24.30
2018-04-22T10:10:56.857Z,24.40
2018-04-22T10:13:22.990Z,24.60
2018-04-22T10:15:49.026Z,24.80
2018-04-22T10:18:15.313Z,24.80
2018-04-22T10:20:42.442Z,24.80
2018-04-22T10:23:08.739Z,24.90
2018-04-22T10:25:35.304Z,24.80
2018-04-22T10:28:03.245Z,25.00
2018-04-22T10:30:29.942Z,25.00
2018-04-22T10:32:56.460Z,25.00
2018-04-22T10:35:22.796Z,24.80
2018-04-22T10:37:49.184Z,25.00
2018-04-22T10:40:17.692Z,25.10
2018-04-22T10:42:43.901Z,25.00
2018-04-22T10:45:11.166Z,24.90
2018-04-22T10:47:37.587Z,25.00
2018-04-22T10:50:04.880Z,25.50
2018-04-22T10:52:31.221Z,25.50
2018-04-22T10:54:57.652Z,25.40
2018-04-22T10:57:24.624Z,25.60
2018-04-22T10:59:50.905Z,26.00
2018-04-22T11:02:18.904Z,26.20
2018-04-22T11:04:45.023Z,26.40
2018-04-22T11:07:11.244Z,26.30
2018-04-22T11:09:38.245Z,26.50
2018-04-22T11:12:04.531Z,26.60
2018-04-22T11:14:31.387Z,26.50
2018-04-22T11:16:57.561Z,26.30
2018-04-22T11:19:23.699Z,26.20
2018-04-22T11:21:49.987Z,26.30
2018-04-22T11:24:16.319Z,26.40
2018-04-22T11:26:43.454Z,26.70
2018-04-22T11:29:09.942Z,26.90
2018-04-22T11:31:36.509Z,26.60
2018-04-22T11:34:03.993Z,26.40
2018-04-22T11:36:30.177Z,26.30
2018-04-22T11:38:57.269Z,26.20
2018-04-22T11:41:23.891Z,26.50
2018-04-22T11:43:50.222Z,26.40
2018-04-22T11:46:16.571Z,26.40
2018-04-22T11:48:43.071Z,26.50
2018-04-22T11:51:10.755Z,26.60
2018-04-22T11:53:38.780Z,26.60
2018-04-22T11:56:05.058Z,26.80
2018-04-22T11:58:32.345Z,26.90
2018-04-22T12:00:58.522Z,26.90
2018-04-22T12:03:25.082Z,26.90
2018-04-22T12:05:51.258Z,27.10
2018-04-22T12:08:17.430Z,27.40
2018-04-22T12:10:43.575Z,27.80
2018-04-22T12:13:09.695Z,27.90
2018-04-22T12:15:36.694Z,28.10
2018-04-22T12:18:03.350Z,28.00
2018-04-22T12:20:30.424Z,28.00
2018-04-22T12:22:58.018Z,27.60
2018-04-22T12:25:24.015Z,27.50
2018-04-22T12:27:50.428Z,27.70
2018-04-22T12:30:16.866Z,27.60
2018-04-22T12:32:43.078Z,27.70
2018-04-22T12:35:10.965Z,27.50
2018-04-22T12:37:37.219Z,27.50
2018-04-22T12:40:12.678Z,27.80
2018-04-22T12:42:38.862Z,28.20
2018-04-22T12:45:05.033Z,28.40
2018-04-22T12:47:31.995Z,28.10
2018-04-22T12:49:58.152Z,28.10
2018-04-22T12:52:24.423Z,28.40
2018-04-22T12:54:51.809Z,28.80
2018-04-22T12:57:22.988Z,29.00
2018-04-22T12:59:49.455Z,29.20
2018-04-22T13:02:18.828Z,29.50
2018-04-22T13:04:45.421Z,29.30
2018-04-22T13:07:13.487Z,29.20
2018-04-22T13:09:39.765Z,29.30
2018-04-22T13:12:06.511Z,29.70
2018-04-22T13:14:32.719Z,30.20
2018-04-22T13:16:59.076Z,30.50
2018-04-22T13:19:25.709Z,30.90
2018-04-22T13:21:53.462Z,30.90
2018-04-22T13:24:20.300Z,30.50
2018-04-22T13:26:50.874Z,30.30
2018-04-22T13:29:22.017Z,30.40
2018-04-22T13:31:48.845Z,30.10
2018-04-22T13:34:16.488Z,29.80
2018-04-22T13:36:44.615Z,30.10
2018-04-22T13:39:10.703Z,30.20
2018-04-22T13:41:36.975Z,29.70
2018-04-22T13:44:05.205Z,29.50
2018-04-22T13:46:32.182Z,29.90
2018-04-22T13:48:59.543Z,29.80
2018-04-22T13:51:27.393Z,29.30
2018-04-22T13:53:54.377Z,29.30
2018-04-22T13:56:21.004Z,29.30
2018-04-22T13:58:47.729Z,29.30
2018-04-22T14:01:13.994Z,29.20
2018-04-22T14:03:40.110Z,29.10
2018-04-22T14:06:06.484Z,29.00
2018-04-22T14:08:32.611Z,29.20
2018-04-22T14:10:58.767Z,29.50
2018-04-22T14:13:25.739Z,29.50
2018-04-22T14:15:52.670Z,29.50
2018-04-22T14:18:18.800Z,29.40
2018-04-22T14:20:45.007Z,29.40
2018-04-22T14:23:11.198Z,29.50
2018-04-22T14:25:38.016Z,29.30
2018-04-22T14:28:04.366Z,29.20
2018-04-22T14:30:33.648Z,29.40
2018-04-22T14:33:01.773Z,29.40
2018-04-22T14:35:28.501Z,29.30
2018-04-22T14:37:55.440Z,29.20
2018-04-22T14:40:21.573Z,29.20
2018-04-22T14:42:50.610Z,29.40
2018-04-22T14:45:29.111Z,29.30
2018-04-22T14:47:56.123Z,29.50
2018-04-22T14:50:23.732Z,29.40
2018-04-22T14:52:50.015Z,29.10
2018-04-22T14:55:16.298Z,29.00
2018-04-22T14:57:42.360Z,29.10
2018-04-22T15:00:08.963Z,29.10
2018-04-22T15:02:35.269Z,29.10
2018-04-22T15:05:01.389Z,29.00
2018-04-22T15:07:28.383Z,28.90
2018-04-22T15:09:55.251Z,28.70
2018-04-22T15:12:21.582Z,28.80
2018-04-22T15:14:50.693Z,28.60
2018-04-22T15:17:17.704Z,28.60
2018-04-22T15:19:43.929Z,28.60
2018-04-22T15:22:10.938Z,28.70
2018-04-22T15:24:38.015Z,28.60
2018-04-22T15:27:04.097Z,28.70
2018-04-22T15:29:31.219Z,28.60
2018-04-22T15:31:57.274Z,28.60
2018-04-22T15:34:25.564Z,28.50
2018-04-22T15:36:52.001Z,28.50
2018-04-22T15:39:18.581Z,28.60
2018-04-22T15:41:44.850Z,28.90
2018-04-22T15:44:11.075Z,29.10
2018-04-22T15:46:37.248Z,29.20
2018-04-22T15:49:04.721Z,29.40
2018-04-22T15:51:30.944Z,29.40
2018-04-22T15:53:58.001Z,29.50
2018-04-22T15:56:24.158Z,29.70
2018-04-22T15:58:51.051Z,29.60
2018-04-22T16:01:18.942Z,29.60
2018-04-22T16:03:47.009Z,29.50
2018-04-22T16:06:17.074Z,29.50
2018-04-22T16:08:43.494Z,29.40
2018-04-22T16:11:09.686Z,29.40
2018-04-22T16:13:35.727Z,29.40
2018-04-22T16:16:01.847Z,29.20
2018-04-22T16:18:28.067Z,29.10
2018-04-22T16:20:55.769Z,29.10
2018-04-22T16:23:23.653Z,28.80
2018-04-22T16:25:49.858Z,28.80
2018-04-22T16:28:16.543Z,28.80
2018-04-22T16:30:42.617Z,28.80
2018-04-22T16:33:08.774Z,28.60
2018-04-22T16:35:35.123Z,28.50
2018-04-22T16:38:01.675Z,28.40
2018-04-22T16:40:27.972Z,28.40
2018-04-22T16:42:55.226Z,28.90
2018-04-22T16:45:21.431Z,28.80
2018-04-22T16:47:48.607Z,29.00
2018-04-22T16:50:15.475Z,29.10
2018-04-22T16:52:42.583Z,29.30
2018-04-22T16:55:10.213Z,29.10
2018-04-22T16:57:37.843Z,29.00
2018-04-22T17:00:11.035Z,28.90
2018-04-22T17:02:38.156Z,28.50
2018-04-22T17:05:05.105Z,28.40
2018-04-22T17:07:31.281Z,28.30
2018-04-22T17:09:58.392Z,28.20
2018-04-22T17:12:25.192Z,28.10
2018-04-22T17:14:52.664Z,28.30
2018-04-22T17:17:19.208Z,28.20
2018-04-22T17:19:46.352Z,27.90
2018-04-22T17:22:13.301Z,27.80
2018-04-22T17:24:40.406Z,27.70
2018-04-22T17:27:08.263Z,27.70
2018-04-22T17:29:36.177Z,27.50
2018-04-22T17:32:02.414Z,27.50
2018-04-22T17:34:29.558Z,27.50
2018-04-22T17:36:56.015Z,27.40
2018-04-22T17:39:23.897Z,27.30
2018-04-22T17:41:53.218Z,27.20
2018-04-22T17:44:23.496Z,27.20
2018-04-22T17:46:50.268Z,27.10
2018-04-22T17:49:21.337Z,27.00
2018-04-22T17:54:38.199Z,26.80
2018-04-22T17:57:06.687Z,26.80
2018-04-22T18:22:41.482Z,26.10
2018-04-22T18:25:07.822Z,26.10
2018-04-22T18:27:34.215Z,26.00
2018-04-22T18:30:00.890Z,26.00
2018-04-22T18:32:27.736Z,25.90
2018-04-22T18:34:56.826Z,25.80
2018-04-22T18:37:25.043Z,25.70
2018-04-22T18:39:52.194Z,25.70
2018-04-22T18:42:19.609Z,25.70
2018-04-22T18:44:45.996Z,25.60
2018-04-22T18:47:12.277Z,25.60
2018-04-22T18:49:40.811Z,25.50
2018-04-22T18:52:07.188Z,25.50
2018-04-22T18:54:33.932Z,25.50
2018-04-22T18:57:01.055Z,25.30
2018-04-22T18:59:27.213Z,25.20
2018-04-22T19:01:54.045Z,25.20
2018-04-22T19:04:20.328Z,25.20
2018-04-22T19:06:47.164Z,25.10
2018-04-22T19:09:13.610Z,25.10
2018-04-22T19:11:39.887Z,25.10
2018-04-22T19:14:06.148Z,25.00
2018-04-22T19:16:32.614Z,24.90
2018-04-22T19:19:00.262Z,24.90
2018-04-22T19:21:27.278Z,24.80
2018-04-22T19:23:53.494Z,24.80
2018-04-22T19:26:20.437Z,24.80
2018-04-22T19:29:00.642Z,24.80
2018-04-22T19:31:27.042Z,24.70
2018-04-22T19:33:53.440Z,24.60
2018-04-22T19:36:19.544Z,24.50
2018-04-22T19:38:46.688Z,24.50
2018-04-22T19:41:13.804Z,24.50
2018-04-22T19:43:39.940Z,24.40
2018-04-22T19:46:06.087Z,24.40
2018-04-22T19:48:32.431Z,24.40
2018-04-22T19:50:58.671Z,24.40
2018-04-22T19:53:24.786Z,24.40
2018-04-22T19:55:51.801Z,24.30
2018-04-22T19:58:17.966Z,24.30
2018-04-22T20:00:44.174Z,24.30
2018-04-22T20:03:10.853Z,24.30
2018-04-22T20:05:38.189Z,24.20
2018-04-22T20:08:04.388Z,24.30
2018-04-22T20:10:32.120Z,24.20
2018-04-22T20:12:58.346Z,24.10
2018-04-22T20:15:26.413Z,24.20
2018-04-22T20:17:52.720Z,24.20
2018-04-22T20:20:18.843Z,24.10
2018-04-22T20:22:45.903Z,24.10
2018-04-22T20:25:12.195Z,24.10
2018-04-22T20:27:38.347Z,24.10
2018-04-22T20:30:05.452Z,24.10
2018-04-22T20:32:31.510Z,24.10
2018-04-22T20:34:58.745Z,24.00
2018-04-22T20:37:27.053Z,24.00
2018-04-22T20:39:53.353Z,24.00
2018-04-22T20:42:19.590Z,24.00
2018-04-22T20:44:46.613Z,23.90
2018-04-22T20:47:12.992Z,23.90
2018-04-22T20:49:39.433Z,23.90
2018-04-22T20:52:06.137Z,23.90
2018-04-22T20:54:32.255Z,23.80
2018-04-22T20:56:59.788Z,23.70
2018-04-22T20:59:26.291Z,23.70
2018-04-22T21:01:52.571Z,23.70
2018-04-22T21:04:18.736Z,23.60
2018-04-22T21:06:45.004Z,23.70
2018-04-22T21:09:11.191Z,23.60
2018-04-22T21:11:37.462Z,23.60
2018-04-22T21:14:03.791Z,23.60
2018-04-22T21:16:30.321Z,23.60
2018-04-22T21:18:56.815Z,23.60
2018-04-22T21:21:23.105Z,23.50
2018-04-22T21:23:49.427Z,23.50
2018-04-22T21:26:15.608Z,23.40
2018-04-22T21:28:41.880Z,23.40
2018-04-22T21:31:09.031Z,23.20
2018-04-22T21:33:35.315Z,23.20
2018-04-22T21:36:02.238Z,23.20
2018-04-22T21:38:29.849Z,23.10
2018-04-22T21:40:56.155Z,23.00
2018-04-22T21:43:22.781Z,23.10
2018-04-22T21:45:49.797Z,23.00
2018-04-22T21:48:18.190Z,22.90
2018-04-22T21:50:44.272Z,22.90
2018-04-22T21:53:11.088Z,22.80
2018-04-22T21:55:38.495Z,22.80
2018-04-22T21:58:04.722Z,22.80
2018-04-22T22:00:30.951Z,22.70
2018-04-22T22:02:58.169Z,22.70
2018-04-22T22:05:25.107Z,22.60
2018-04-22T22:07:51.208Z,22.60
2018-04-22T22:10:17.560Z,22.40
2018-04-22T22:12:43.780Z,22.40
2018-04-22T22:15:09.932Z,22.30
2018-04-22T22:17:36.120Z,22.40
2018-04-22T22:20:02.419Z,22.40
2018-04-22T22:22:28.649Z,22.40
2018-04-22T22:24:57.299Z,22.40
2018-04-22T22:29:56.590Z,22.40
2018-04-22T22:32:23.394Z,22.40
2018-04-22T22:34:49.674Z,22.40
2018-04-22T22:37:16.098Z,22.40
2018-04-22T22:39:43.255Z,22.40
2018-04-22T22:42:09.420Z,22.20
2018-04-22T22:44:35.601Z,22.10
2018-04-22T22:47:02.590Z,22.00
2018-04-22T22:49:28.872Z,21.90
2018-04-22T22:51:55.728Z,21.80
2018-04-22T22:54:21.913Z,21.80
2018-04-22T22:56:48.153Z,21.60
2018-04-22T22:59:15.884Z,21.60
2018-04-22T23:01:42.729Z,21.60
2018-04-22T23:04:09.674Z,21.60
2018-04-22T23:06:35.860Z,21.60
2018-04-22T23:09:02.042Z,21.60
2018-04-22T23:11:29.136Z,21.70
2018-04-22T23:13:56.178Z,21.60
2018-04-22T23:16:23.492Z,21.50
2018-04-22T23:18:49.687Z,21.50
2018-04-22T23:21:15.827Z,21.40
2018-04-22T23:23:42.114Z,21.40
2018-04-22T23:26:09.038Z,21.30
2018-04-22T23:28:39.422Z,21.20
2018-04-22T23:31:05.632Z,21.20
2018-04-22T23:33:32.690Z,21.00
2018-04-22T23:35:59.624Z,21.00
2018-04-22T23:38:26.949Z,20.90
2018-04-22T23:40:52.970Z,21.00
2018-04-22T23:43:19.203Z,21.00
2018-04-22T23:45:45.790Z,20.90
2018-04-22T23:48:11.920Z,20.80
2018-04-22T23:50:38.193Z,20.80
2018-04-22T23:53:04.350Z,20.90
2018-04-22T23:55:30.595Z,20.80
2018-04-22T23:57:56.785Z,20.80
